createdAt,value
2019-02-18T00:01:25.309Z,27.03
2019-02-18T00:03:52.580Z,24.50
2019-02-18T00:06:19.844Z,25.20
2019-02-18T00:08:47.093Z,26.10
2019-02-18T00:11:14.371Z,24.43
2019-02-18T00:13:41.624Z,22.93
2019-02-18T00:16:08.846Z,20.93
2019-02-18T00:18:36.111Z,22.57
2019-02-18T00:21:03.353Z,22.77
2019-02-18T00:23:30.569Z,23.17
2019-02-18T00:25:57.932Z,20.53
2019-02-18T00:28:25.144Z,19.90
2019-02-18T00:30:52.372Z,23.43
2019-02-18T00:33:19.661Z,23.07
2019-02-18T00:35:46.881Z,21.67
2019-02-18T00:38:14.090Z,21.97
2019-02-18T00:40:41.337Z,18.63
2019-02-18T00:43:08.608Z,20.50
2019-02-18T00:45:35.826Z,20.97
2019-02-18T00:48:03.085Z,21.40
2019-02-18T00:50:30.309Z,21.37
2019-02-18T00:52:57.827Z,20.67
2019-02-18T00:55:25.087Z,21.10
2019-02-18T00:57:52.312Z,22.43
2019-02-18T01:00:19.725Z,21.87
2019-02-18T01:02:47.007Z,21.10
2019-02-18T01:05:14.247Z,21.50
2019-02-18T01:07:41.481Z,23.63
2019-02-18T01:10:09.870Z,24.07
2019-02-18T01:12:37.166Z,22.87
2019-02-18T01:15:05.334Z,24.37
2019-02-18T01:17:32.684Z,26.00
2019-02-18T01:19:59.890Z,26.30
2019-02-18T01:22:27.109Z,25.40
2019-02-18T01:24:54.402Z,23.57
2019-02-18T01:27:21.655Z,28.50
2019-02-18T01:29:48.882Z,27.67
2019-02-18T01:32:16.123Z,24.30
2019-02-18T01:34:43.353Z,26.20
2019-02-18T01:37:10.570Z,27.23
2019-02-18T01:39:37.951Z,26.13
2019-02-18T01:42:05.216Z,22.10
2019-02-18T01:44:32.465Z,23.63
2019-02-18T01:46:59.689Z,24.17
2019-02-18T01:49:26.919Z,24.97
2019-02-18T01:51:54.193Z,23.03
2019-02-18T01:54:21.400Z,22.13
2019-02-18T01:56:48.620Z,22.67
2019-02-18T01:59:15.881Z,20.77
2019-02-18T02:01:43.159Z,21.73
2019-02-18T02:04:10.387Z,20.50
2019-02-18T02:06:37.766Z,19.07
2019-02-18T02:09:08.220Z,23.57
2019-02-18T02:11:35.468Z,21.87
2019-02-18T02:14:02.701Z,23.37
2019-02-18T02:16:29.942Z,24.03
2019-02-18T02:18:57.228Z,20.10
2019-02-18T02:21:24.505Z,18.03
2019-02-18T02:23:51.774Z,19.37
2019-02-18T02:26:19.039Z,19.50
2019-02-18T02:28:46.271Z,20.90
2019-02-18T02:31:13.471Z,16.13
2019-02-18T02:33:40.752Z,18.90
2019-02-18T02:36:07.968Z,17.50
2019-02-18T02:38:35.239Z,18.10
2019-02-18T02:41:02.624Z,20.70
2019-02-18T02:43:29.883Z,22.60
2019-02-18T02:45:57.059Z,19.50
2019-02-18T02:48:24.306Z,19.60
2019-02-18T02:50:51.549Z,20.13
2019-02-18T02:53:18.811Z,23.00
2019-02-18T02:55:46.079Z,22.17
2019-02-18T02:58:13.328Z,20.13
2019-02-18T03:00:40.616Z,19.83
2019-02-18T03:03:08.180Z,20.07
2019-02-18T03:05:35.395Z,18.87
2019-02-18T03:08:02.654Z,18.00
2019-02-18T03:10:29.876Z,18.93
2019-02-18T03:12:57.101Z,19.37
2019-02-18T03:15:24.399Z,21.23
2019-02-18T03:17:51.619Z,18.70
2019-02-18T03:20:18.857Z,20.07
2019-02-18T03:22:46.109Z,24.47
2019-02-18T03:25:24.295Z,21.13
2019-02-18T03:28:01.416Z,19.97
2019-02-18T03:30:58.923Z,24.17
2019-02-18T03:33:30.009Z,19.97
2019-02-18T03:35:57.257Z,19.67
2019-02-18T03:38:31.660Z,20.70
2019-02-18T03:41:02.803Z,21.97
2019-02-18T03:43:23.235Z,18.90
2019-02-18T03:45:50.492Z,19.67
2019-02-18T03:48:17.708Z,20.60
2019-02-18T03:50:45.008Z,16.70
2019-02-18T03:53:12.228Z,19.10
2019-02-18T03:55:39.457Z,20.13
2019-02-18T03:58:06.703Z,18.27
2019-02-18T04:00:34.025Z,22.43
2019-02-18T04:03:01.361Z,18.27
2019-02-18T04:05:28.633Z,20.03
2019-02-18T04:07:55.895Z,22.00
2019-02-18T04:10:23.165Z,21.30
2019-02-18T04:12:50.431Z,19.97
2019-02-18T04:15:17.659Z,22.30
2019-02-18T04:17:44.885Z,19.80
2019-02-18T04:20:12.333Z,20.90
2019-02-18T04:22:39.553Z,21.87
2019-02-18T04:25:07.279Z,22.70
2019-02-18T04:27:34.548Z,19.80
2019-02-18T04:30:01.764Z,22.63
2019-02-18T04:32:28.968Z,22.57
2019-02-18T04:34:56.224Z,21.37
2019-02-18T04:37:23.445Z,21.23
2019-02-18T04:39:50.700Z,21.07
2019-02-18T04:42:17.904Z,21.40
2019-02-18T04:44:45.256Z,21.27
2019-02-18T04:47:12.606Z,22.57
2019-02-18T04:49:39.873Z,22.23
2019-02-18T04:52:07.406Z,24.03
2019-02-18T04:54:34.675Z,23.50
2019-02-18T04:57:01.908Z,25.67
2019-02-18T04:59:29.105Z,23.57
2019-02-18T05:01:56.358Z,23.83
2019-02-18T05:04:23.589Z,21.13
2019-02-18T05:06:50.830Z,24.67
2019-02-18T05:09:18.119Z,19.13
2019-02-18T05:11:45.340Z,21.13
2019-02-18T05:14:12.548Z,23.10
2019-02-18T05:16:39.797Z,20.63
2019-02-18T05:19:07.016Z,25.17
2019-02-18T05:21:34.230Z,22.37
2019-02-18T05:24:01.503Z,23.93
2019-02-18T05:26:28.726Z,24.53
2019-02-18T05:28:55.953Z,24.77
2019-02-18T05:31:23.247Z,21.70
2019-02-18T05:33:50.461Z,22.93
2019-02-18T05:36:17.682Z,21.17
2019-02-18T05:38:44.928Z,21.47
2019-02-18T05:41:12.216Z,24.23
2019-02-18T05:43:39.430Z,19.57
2019-02-18T05:46:08.699Z,20.13
2019-02-18T05:48:35.818Z,19.20
2019-02-18T05:51:03.089Z,16.83
2019-02-18T05:53:30.307Z,19.30
2019-02-18T05:55:57.581Z,18.30
2019-02-18T05:58:24.832Z,17.60
2019-02-18T06:00:52.062Z,19.77
2019-02-18T06:03:19.334Z,17.33
2019-02-18T06:05:46.545Z,18.80
2019-02-18T06:08:13.827Z,18.17
2019-02-18T06:10:41.104Z,16.07
2019-02-18T06:13:08.329Z,19.77
2019-02-18T06:15:35.579Z,17.13
2019-02-18T06:18:02.877Z,17.27
2019-02-18T06:20:30.106Z,17.43
2019-02-18T06:22:57.345Z,17.07
2019-02-18T06:25:24.567Z,17.33
2019-02-18T06:27:51.787Z,17.27
2019-02-18T06:30:19.028Z,16.17
2019-02-18T06:32:46.260Z,17.43
2019-02-18T06:35:13.502Z,17.37
2019-02-18T06:37:40.702Z,15.70
2019-02-18T06:40:08.073Z,16.80
2019-02-18T06:42:35.403Z,17.83
2019-02-18T06:45:22.239Z,16.90
2019-02-18T06:47:49.669Z,16.63
2019-02-18T06:50:16.906Z,15.53
2019-02-18T06:52:44.116Z,15.40
2019-02-18T06:55:12.360Z,17.37
2019-02-18T06:57:59.174Z,17.60
2019-02-18T07:00:50.421Z,16.53
2019-02-18T07:03:52.127Z,21.33
2019-02-18T07:06:35.878Z,16.13
2019-02-18T07:09:15.747Z,15.90
2019-02-18T07:12:05.163Z,15.27
2019-02-18T07:14:32.378Z,17.13
2019-02-18T07:16:59.592Z,17.23
2019-02-18T07:19:27.172Z,15.23
2019-02-18T07:21:54.466Z,15.23
2019-02-18T07:24:22.112Z,16.97
2019-02-18T07:26:49.362Z,16.43
2019-02-18T07:29:16.693Z,17.13
2019-02-18T07:31:43.937Z,15.80
2019-02-18T07:34:11.172Z,16.40
2019-02-18T07:36:38.386Z,15.70
2019-02-18T07:39:06.517Z,15.47
2019-02-18T07:41:33.783Z,15.40
2019-02-18T07:44:01.027Z,16.80
2019-02-18T07:46:30.943Z,15.40
2019-02-18T07:48:58.635Z,15.30
2019-02-18T07:51:25.899Z,14.27
2019-02-18T07:53:53.281Z,11.27
2019-02-18T07:56:20.504Z,14.10
2019-02-18T07:58:47.783Z,16.00
2019-02-18T08:01:15.016Z,56.67
2019-02-18T08:03:42.246Z,47.20
2019-02-18T08:06:09.509Z,25.77
2019-02-18T08:08:36.797Z,17.43
2019-02-18T08:11:04.024Z,17.23
2019-02-18T08:13:31.487Z,18.63
2019-02-18T08:15:58.718Z,16.83
2019-02-18T08:18:25.932Z,13.53
2019-02-18T08:20:54.233Z,14.20
2019-02-18T08:23:21.541Z,15.70
2019-02-18T08:25:48.784Z,15.53
2019-02-18T08:28:16.218Z,16.43
2019-02-18T08:30:43.606Z,17.47
2019-02-18T08:33:10.862Z,17.53
2019-02-18T08:35:38.109Z,21.60
2019-02-18T08:38:05.334Z,17.60
2019-02-18T08:40:32.586Z,14.57
2019-02-18T08:43:00.007Z,19.23
2019-02-18T08:45:27.252Z,17.40
2019-02-18T08:47:54.468Z,16.30
2019-02-18T08:50:21.737Z,13.37
2019-02-18T08:52:48.964Z,16.63
2019-02-18T08:55:16.255Z,19.67
2019-02-18T08:57:43.486Z,16.17
2019-02-18T09:00:13.570Z,18.63
2019-02-18T09:02:40.877Z,20.77
2019-02-18T09:05:08.136Z,16.93
2019-02-18T09:07:35.396Z,18.17
2019-02-18T09:10:03.243Z,17.67
2019-02-18T09:12:30.479Z,19.10
2019-02-18T09:14:57.749Z,20.43
2019-02-18T09:17:24.987Z,17.87
2019-02-18T09:19:52.293Z,21.53
2019-02-18T09:22:50.950Z,23.43
2019-02-18T09:25:21.271Z,18.57
2019-02-18T09:27:50.688Z,17.70
2019-02-18T09:30:20.911Z,18.27
2019-02-18T09:32:48.182Z,18.17
2019-02-18T09:35:15.443Z,19.30
2019-02-18T09:37:42.848Z,18.70
2019-02-18T09:40:10.391Z,15.90
2019-02-18T09:42:37.697Z,19.30
2019-02-18T09:45:06.171Z,17.90
2019-02-18T09:47:33.389Z,17.37
2019-02-18T09:50:00.688Z,19.70
2019-02-18T09:52:27.923Z,18.27
2019-02-18T09:54:55.225Z,19.23
2019-02-18T09:57:22.495Z,19.27
2019-02-18T09:59:49.754Z,20.67
2019-02-18T10:02:17.044Z,20.60
2019-02-18T10:04:44.302Z,19.30
2019-02-18T10:07:11.672Z,19.20
2019-02-18T10:09:38.985Z,20.07
2019-02-18T10:12:06.256Z,22.00
2019-02-18T10:14:33.517Z,20.33
2019-02-18T10:17:00.766Z,18.87
2019-02-18T10:19:27.990Z,20.40
2019-02-18T10:21:55.291Z,17.63
2019-02-18T10:24:22.562Z,20.83
2019-02-18T10:26:49.807Z,19.93
2019-02-18T10:29:17.100Z,19.07
2019-02-18T10:31:44.442Z,18.53
2019-02-18T10:34:11.763Z,21.50
2019-02-18T10:36:39.043Z,19.10
2019-02-18T10:39:06.515Z,18.53
2019-02-18T10:41:33.743Z,19.83
2019-02-18T10:44:02.940Z,18.57
2019-02-18T10:46:30.314Z,20.07
2019-02-18T10:48:57.703Z,19.90
2019-02-18T10:51:28.408Z,20.67
2019-02-18T10:53:55.625Z,19.80
2019-02-18T10:56:23.005Z,19.73
2019-02-18T10:58:50.239Z,21.80
2019-02-18T11:01:17.468Z,20.17
2019-02-18T11:03:44.742Z,21.53
2019-02-18T11:06:12.068Z,20.60
2019-02-18T11:08:39.402Z,17.57
2019-02-18T11:11:16.425Z,21.53
2019-02-18T11:13:35.830Z,20.17
2019-02-18T11:16:03.336Z,18.80
2019-02-18T11:18:30.611Z,20.13
2019-02-18T11:20:57.865Z,22.70
2019-02-18T11:23:27.596Z,18.97
2019-02-18T11:25:54.880Z,19.20
2019-02-18T11:28:22.190Z,18.63
2019-02-18T11:30:49.728Z,18.90
2019-02-18T11:33:16.978Z,18.07
2019-02-18T11:35:44.336Z,20.23
2019-02-18T11:38:12.059Z,19.97
2019-02-18T11:40:39.346Z,21.03
2019-02-18T11:43:06.639Z,21.27
2019-02-18T11:45:34.857Z,19.77
2019-02-18T11:48:02.332Z,19.10
2019-02-18T11:50:30.134Z,18.30
2019-02-18T11:53:04.667Z,21.60
2019-02-18T11:55:32.166Z,18.73
2019-02-18T11:57:59.399Z,21.77
2019-02-18T12:00:30.258Z,21.97
2019-02-18T12:03:03.655Z,22.17
2019-02-18T12:05:26.702Z,15.43
2019-02-18T12:07:54.018Z,21.30
2019-02-18T12:10:21.616Z,20.77
2019-02-18T12:12:49.571Z,19.03
2019-02-18T12:15:16.877Z,22.77
2019-02-18T12:17:44.136Z,20.53
2019-02-18T12:20:12.115Z,21.70
2019-02-18T12:22:39.466Z,13.87
2019-02-18T12:25:06.926Z,20.03
2019-02-18T12:27:34.159Z,19.17
2019-02-18T12:30:01.653Z,23.60
2019-02-18T12:32:28.883Z,23.27
2019-02-18T12:34:56.129Z,22.03
2019-02-18T12:37:23.436Z,18.77
2019-02-18T12:39:50.772Z,20.83
2019-02-18T12:42:18.063Z,20.60
2019-02-18T12:44:45.390Z,20.43
2019-02-18T12:47:12.767Z,19.40
2019-02-18T12:49:40.055Z,21.27
2019-02-18T12:52:09.137Z,19.03
2019-02-18T12:54:37.590Z,15.97
2019-02-18T12:57:04.915Z,18.97
2019-02-18T12:59:32.461Z,20.50
2019-02-18T13:02:00.009Z,16.20
2019-02-18T13:04:27.297Z,17.43
2019-02-18T13:06:55.024Z,18.40
2019-02-18T13:09:22.408Z,19.97
2019-02-18T13:11:58.752Z,14.73
2019-02-18T13:14:18.849Z,16.83
2019-02-18T13:16:46.108Z,18.17
2019-02-18T13:19:14.102Z,16.97
2019-02-18T13:21:41.551Z,17.20
2019-02-18T13:24:08.855Z,17.93
2019-02-18T13:26:36.425Z,16.57
2019-02-18T13:29:03.678Z,16.83
2019-02-18T13:31:30.934Z,14.40
2019-02-18T13:33:58.248Z,15.20
2019-02-18T13:36:25.560Z,12.47
2019-02-18T13:38:52.907Z,18.73
2019-02-18T13:41:20.182Z,16.90
2019-02-18T13:43:47.463Z,20.13
2019-02-18T13:46:14.847Z,15.30
2019-02-18T13:48:42.091Z,17.70
2019-02-18T13:51:09.329Z,18.50
2019-02-18T13:53:36.673Z,20.00
2019-02-18T13:56:05.472Z,17.50
2019-02-18T13:58:32.738Z,20.40
2019-02-18T14:01:00.056Z,18.40
2019-02-18T14:03:27.536Z,18.90
2019-02-18T14:05:54.812Z,21.07
2019-02-18T14:08:22.308Z,18.17
2019-02-18T14:10:49.707Z,25.97
2019-02-18T14:13:17.174Z,25.77
2019-02-18T14:15:44.430Z,20.37
2019-02-18T14:18:11.710Z,21.00
2019-02-18T14:20:39.132Z,24.57
2019-02-18T14:23:06.429Z,17.97
2019-02-18T14:25:33.712Z,20.83
2019-02-18T14:28:01.058Z,21.03
2019-02-18T14:30:28.604Z,20.97
2019-02-18T14:32:55.901Z,22.27
2019-02-18T14:35:23.124Z,22.07
2019-02-18T14:37:50.706Z,15.60
2019-02-18T14:40:18.559Z,19.83
2019-02-18T14:42:45.806Z,21.93
2019-02-18T14:45:14.485Z,23.20
2019-02-18T14:47:41.768Z,23.93
2019-02-18T14:50:09.486Z,26.73
2019-02-18T14:52:36.701Z,23.47
2019-02-18T14:55:05.295Z,19.70
2019-02-18T14:57:33.083Z,20.90
2019-02-18T15:00:00.314Z,24.27
2019-02-18T15:02:28.321Z,27.00
2019-02-18T15:04:55.734Z,22.83
2019-02-18T15:07:23.358Z,25.57
2019-02-18T15:09:50.684Z,29.03
2019-02-18T15:12:18.539Z,20.97
2019-02-18T15:14:46.105Z,20.13
2019-02-18T15:17:13.327Z,24.67
2019-02-18T15:19:42.778Z,27.67
2019-02-18T15:22:10.074Z,22.50
2019-02-18T15:24:37.538Z,27.57
2019-02-18T15:27:05.313Z,24.63
2019-02-18T15:29:32.984Z,21.53
2019-02-18T15:32:00.391Z,26.30
2019-02-18T15:34:27.671Z,30.17
2019-02-18T15:36:54.972Z,22.47
2019-02-18T15:39:22.233Z,27.70
2019-02-18T15:41:49.458Z,28.93
2019-02-18T15:44:17.419Z,27.60
2019-02-18T15:46:45.068Z,28.40
2019-02-18T15:49:12.345Z,26.33
2019-02-18T15:51:39.937Z,22.37
2019-02-18T15:54:07.183Z,27.00
2019-02-18T15:56:34.474Z,29.40
2019-02-18T15:59:01.727Z,28.30
2019-02-18T16:01:29.024Z,24.77
2019-02-18T16:03:56.599Z,23.80
2019-02-18T16:06:23.805Z,20.53
2019-02-18T16:08:51.087Z,20.53
2019-02-18T16:11:18.323Z,23.93
2019-02-18T16:13:45.542Z,20.97
2019-02-18T16:16:12.805Z,24.70
2019-02-18T16:18:40.031Z,21.23
2019-02-18T16:21:07.750Z,20.27
2019-02-18T16:23:35.035Z,23.27
2019-02-18T16:26:02.342Z,21.87
2019-02-18T16:28:29.635Z,16.27
2019-02-18T16:30:56.898Z,17.27
2019-02-18T16:33:24.161Z,14.77
2019-02-18T16:35:51.422Z,14.90
2019-02-18T16:38:18.700Z,17.47
2019-02-18T16:40:46.260Z,18.33
2019-02-18T16:43:13.473Z,16.30
2019-02-18T16:45:40.760Z,16.93
2019-02-18T16:48:08.852Z,14.10
2019-02-18T16:50:36.327Z,13.87
2019-02-18T17:32:21.669Z,22.97
2019-02-18T17:34:48.887Z,23.57
2019-02-18T17:37:16.128Z,27.10
2019-02-18T17:39:43.648Z,27.07
2019-02-18T17:42:10.885Z,22.93
2019-02-18T17:44:38.148Z,22.67
2019-02-18T17:47:05.414Z,23.50
2019-02-18T17:49:33.065Z,22.43
2019-02-18T17:52:00.287Z,45.33
2019-02-18T17:54:27.583Z,57.03
2019-02-18T17:56:54.835Z,119.40
2019-02-18T17:59:23.143Z,41.00
2019-02-18T18:01:50.356Z,26.00
2019-02-18T18:04:17.619Z,29.83
2019-02-18T18:06:44.831Z,25.67
2019-02-18T18:09:12.259Z,34.13
2019-02-18T18:11:39.539Z,31.07
2019-02-18T18:14:06.804Z,33.50
2019-02-18T18:16:34.147Z,33.10
2019-02-18T18:19:09.051Z,27.53
2019-02-18T18:21:30.526Z,26.87
2019-02-18T18:23:57.854Z,23.60
2019-02-18T18:26:25.176Z,28.30
2019-02-18T18:28:52.444Z,30.03
2019-02-18T18:31:19.817Z,26.77
2019-02-18T18:33:47.090Z,29.97
2019-02-18T18:36:14.337Z,30.30
2019-02-18T18:38:41.654Z,27.23
2019-02-18T18:41:08.851Z,28.07
2019-02-18T18:43:36.335Z,31.40
2019-02-18T18:46:04.720Z,32.87
2019-02-18T18:48:32.290Z,29.90
2019-02-18T18:50:59.510Z,32.13
2019-02-18T18:53:26.776Z,24.30
2019-02-18T18:55:54.029Z,35.57
2019-02-18T18:58:21.256Z,31.87
2019-02-18T19:00:48.542Z,29.23
2019-02-18T19:03:15.766Z,30.40
2019-02-18T19:05:43.011Z,24.30
2019-02-18T19:08:10.482Z,32.90
2019-02-18T19:10:37.729Z,35.23
2019-02-18T19:13:04.977Z,29.10
2019-02-18T19:15:32.267Z,30.57
2019-02-18T19:17:59.482Z,33.03
2019-02-18T19:20:26.803Z,24.67
2019-02-18T19:22:54.012Z,25.77
2019-02-18T19:25:21.542Z,28.33
2019-02-18T19:27:48.866Z,33.27
2019-02-18T19:30:19.674Z,27.90
2019-02-18T19:32:47.461Z,29.47
2019-02-18T19:35:14.747Z,34.67
2019-02-18T19:37:41.996Z,28.93
2019-02-18T19:40:10.410Z,26.83
2019-02-18T19:42:37.960Z,31.83
2019-02-18T19:45:06.821Z,31.17
2019-02-18T19:47:34.043Z,26.17
2019-02-18T19:50:02.939Z,25.97
2019-02-18T19:52:30.153Z,27.23
2019-02-18T19:54:57.368Z,26.43
2019-02-18T19:57:24.630Z,27.30
2019-02-18T19:59:51.883Z,27.03
2019-02-18T20:02:19.096Z,29.07
2019-02-18T20:04:46.869Z,24.23
2019-02-18T20:07:14.082Z,28.17
2019-02-18T20:09:41.320Z,26.13
2019-02-18T20:12:08.626Z,22.93
2019-02-18T20:14:35.854Z,25.50
2019-02-18T20:17:03.191Z,31.23
2019-02-18T20:19:30.504Z,28.87
2019-02-18T20:21:57.933Z,27.07
2019-02-18T20:24:25.269Z,30.13
2019-02-18T20:26:53.330Z,31.80
2019-02-18T20:29:20.549Z,30.70
2019-02-18T20:31:47.805Z,29.77
2019-02-18T20:34:15.259Z,31.43
2019-02-18T20:36:42.539Z,33.87
2019-02-18T20:39:11.684Z,36.17
2019-02-18T20:41:38.957Z,38.83
2019-02-18T20:44:07.689Z,35.97
2019-02-18T20:46:35.079Z,33.03
2019-02-18T20:49:02.354Z,38.03
2019-02-18T20:51:29.612Z,39.57
2019-02-18T20:53:56.845Z,34.90
2019-02-18T20:56:24.585Z,36.27
2019-02-18T20:58:51.810Z,32.90
2019-02-18T21:01:19.365Z,28.17
2019-02-18T21:03:46.555Z,28.27
2019-02-18T21:06:13.801Z,34.40
2019-02-18T21:08:41.111Z,35.40
2019-02-18T21:11:08.350Z,33.60
2019-02-18T21:13:35.889Z,31.87
2019-02-18T21:16:03.153Z,28.53
2019-02-18T21:18:30.433Z,28.97
2019-02-18T21:20:57.701Z,33.50
2019-02-18T21:23:24.912Z,37.17
2019-02-18T21:25:52.136Z,32.53
2019-02-18T21:28:19.383Z,36.23
2019-02-18T21:30:46.917Z,37.70
2019-02-18T21:33:14.165Z,35.27
2019-02-18T21:35:41.504Z,37.47
2019-02-18T21:38:08.715Z,38.17
2019-02-18T21:40:35.965Z,38.60
2019-02-18T21:43:03.182Z,35.43
2019-02-18T21:45:30.436Z,35.10
2019-02-18T21:47:57.704Z,39.90
2019-02-18T21:50:24.933Z,32.10
2019-02-18T21:52:52.195Z,31.80
2019-02-18T21:55:19.417Z,33.37
2019-02-18T21:57:46.636Z,35.43
2019-02-18T22:00:16.926Z,31.90
2019-02-18T22:02:44.172Z,35.53
2019-02-18T22:05:11.877Z,32.60
2019-02-18T22:07:39.095Z,36.17
2019-02-18T22:10:06.522Z,34.93
2019-02-18T22:12:33.741Z,26.67
2019-02-18T22:15:00.958Z,25.07
2019-02-18T22:17:28.211Z,22.10
2019-02-18T22:19:55.448Z,27.33
2019-02-18T22:22:22.700Z,29.33
2019-02-18T22:24:50.360Z,30.50
2019-02-18T22:27:17.581Z,34.47
2019-02-18T22:29:44.804Z,27.90
2019-02-18T22:32:12.095Z,30.90
2019-02-18T22:34:39.346Z,33.10
2019-02-18T22:37:06.671Z,32.00
2019-02-18T22:39:33.949Z,32.27
2019-02-18T22:42:01.156Z,31.70
2019-02-18T22:44:28.987Z,35.50
2019-02-18T22:46:56.256Z,37.57
2019-02-18T22:49:23.479Z,31.60
2019-02-18T22:51:50.719Z,30.47
2019-02-18T22:54:17.959Z,31.90
2019-02-18T22:56:45.227Z,30.93
2019-02-18T22:59:12.462Z,31.87
2019-02-18T23:01:40.476Z,38.80
2019-02-18T23:04:07.784Z,29.03
2019-02-18T23:06:35.082Z,34.57
2019-02-18T23:09:03.062Z,32.40
2019-02-18T23:11:30.300Z,31.37
2019-02-18T23:13:57.533Z,31.43
2019-02-18T23:16:24.818Z,30.30
2019-02-18T23:18:52.109Z,30.57
2019-02-18T23:21:19.620Z,34.43
2019-02-18T23:23:47.377Z,35.30
2019-02-18T23:26:14.617Z,37.07
2019-02-18T23:28:41.842Z,23.87
2019-02-18T23:31:09.113Z,29.00
2019-02-18T23:33:36.426Z,32.80
2019-02-18T23:36:03.691Z,33.60
2019-02-18T23:38:30.947Z,31.77
2019-02-18T23:40:58.189Z,28.50
2019-02-18T23:43:25.436Z,23.37
2019-02-18T23:45:52.705Z,24.07
2019-02-18T23:48:19.939Z,27.20
2019-02-18T23:50:47.260Z,28.70
2019-02-18T23:53:14.528Z,23.33
2019-02-18T23:55:41.752Z,23.33
2019-02-18T23:58:08.975Z,24.23
